Time;durP1;ratioP1;P1;durP2;ratioP2;P2;SDS_P1;SDS_P2;PMS_P1;PMS_P2;Temp;Humidity;BMP_temperature;BMP_pressure;BME280_temperature;BME280_humidity;BME280_pressure;Samples;Min_cycle;Max_cycle;Signal;HPM_P1;HPM_P2
2023/01/29 00:00:00;;;;;;;7.40;6.27;;;0.60;99.90;;;;;;5090531;28;20299;-83
2023/01/29 00:02:28;;;;;;;5.63;5.13;;;0.60;99.90;;;;;;5090478;28;20211;-83
2023/01/29 00:04:58;;;;;;;5.70;5.10;;;0.60;99.90;;;;;;5090664;28;20218;-83
2023/01/29 00:07:43;;;;;;;7.07;5.43;;;0.60;99.90;;;;;;5089990;28;20238;-83
2023/01/29 00:10:12;;;;;;;5.73;5.13;;;0.50;99.90;;;;;;5090478;28;20218;-83
2023/01/29 00:12:41;;;;;;;5.70;4.20;;;0.50;99.90;;;;;;5090452;28;20200;-83
2023/01/29 00:15:11;;;;;;;5.83;5.20;;;0.60;99.90;;;;;;5090364;28;20319;-84
2023/01/29 00:17:39;;;;;;;7.63;5.57;;;0.60;99.90;;;;;;5090057;28;20204;-83
2023/01/29 00:20:08;;;;;;;5.77;5.27;;;0.50;99.90;;;;;;5090280;28;20239;-82
2023/01/29 00:22:36;;;;;;;7.77;6.07;;;0.60;99.90;;;;;;5090342;28;20209;-84
2023/01/29 00:25:05;;;;;;;5.23;4.37;;;0.50;99.90;;;;;;5094327;28;20215;-82
2023/01/29 00:27:33;;;;;;;8.07;5.73;;;0.50;99.90;;;;;;5094102;28;20212;-82
2023/01/29 00:30:11;;;;;;;4.70;4.30;;;0.50;99.90;;;;;;5094047;28;20212;-83
2023/01/29 00:32:42;;;;;;;5.43;4.93;;;0.40;99.90;;;;;;5094816;28;20223;-84
2023/01/29 00:35:10;;;;;;;5.13;4.73;;;0.40;99.90;;;;;;5094320;28;20224;-82
2023/01/29 00:37:39;;;;;;;4.50;4.10;;;0.40;99.90;;;;;;5094142;28;20214;-83
2023/01/29 00:40:08;;;;;;;4.93;4.53;;;0.30;99.90;;;;;;5094349;28;20214;-82
2023/01/29 00:45:22;;;;;;;5.33;4.77;;;0.40;99.90;;;;;;5094031;28;20205;-83
2023/01/29 00:47:52;;;;;;;5.30;4.73;;;0.40;99.90;;;;;;5094244;28;20208;-82
2023/01/29 00:50:20;;;;;;;5.80;5.30;;;0.30;99.90;;;;;;5094000;28;20215;-82
2023/01/29 00:52:50;;;;;;;5.07;4.57;;;0.30;99.90;;;;;;5093841;28;20260;-83
2023/01/29 00:55:18;;;;;;;5.67;5.13;;;0.30;99.90;;;;;;5093615;28;20242;-82
2023/01/29 00:57:47;;;;;;;5.93;5.13;;;0.30;99.90;;;;;;5093399;28;20212;-83
2023/01/29 01:00:18;;;;;;;6.13;5.37;;;0.30;99.90;;;;;;5093884;28;20211;-82
2023/01/29 01:05:33;;;;;;;6.40;5.30;;;0.30;99.90;;;;;;5093998;28;20266;-83
2023/01/29 01:08:02;;;;;;;5.13;4.70;;;0.40;99.90;;;;;;5092852;28;20209;-82
2023/01/29 01:10:31;;;;;;;4.70;4.30;;;0.30;99.90;;;;;;5093729;28;20214;-83
2023/01/29 01:13:02;;;;;;;5.53;4.83;;;0.30;99.90;;;;;;5093076;28;20238;-83
2023/01/29 01:15:32;;;;;;;6.03;5.27;;;0.30;99.90;;;;;;5093616;28;20247;-82
2023/01/29 01:18:02;;;;;;;4.43;4.03;;;0.30;99.90;;;;;;5093645;28;20212;-83
2023/01/29 01:20:34;;;;;;;5.00;4.50;;;0.30;99.90;;;;;;5093583;28;20220;-83
2023/01/29 01:23:02;;;;;;;6.13;4.30;;;0.30;99.90;;;;;;5092972;28;20332;-83
2023/01/29 01:25:30;;;;;;;4.43;4.03;;;0.30;99.90;;;;;;5093532;28;20255;-83
2023/01/29 01:27:59;;;;;;;5.67;4.87;;;0.30;99.90;;;;;;5095955;28;20208;-83
2023/01/29 01:30:27;;;;;;;6.23;4.73;;;0.20;99.90;;;;;;5095732;28;20201;-82
2023/01/29 01:32:55;;;;;;;5.00;4.53;;;0.20;99.90;;;;;;5095668;28;20235;-82
2023/01/29 01:35:23;;;;;;;4.83;4.40;;;0.20;99.90;;;;;;5094213;28;20228;-82
2023/01/29 01:37:53;;;;;;;3.83;3.50;;;0.20;99.90;;;;;;5095215;28;20291;-82
2023/01/29 01:40:23;;;;;;;13.63;4.70;;;0.20;99.90;;;;;;5095687;28;20208;-82
2023/01/29 01:42:54;;;;;;;4.27;3.97;;;0.20;99.90;;;;;;5095647;28;20221;-82
2023/01/29 01:45:26;;;;;;;3.73;3.43;;;0.20;99.90;;;;;;5095419;28;20223;-82
2023/01/29 01:47:59;;;;;;;5.07;4.60;;;0.20;99.90;;;;;;5095122;28;20291;-83
2023/01/29 01:50:33;;;;;;;4.93;4.43;;;0.20;99.90;;;;;;5095077;28;20220;-82
2023/01/29 01:53:07;;;;;;;6.37;4.57;;;0.10;99.90;;;;;;5095213;28;20240;-83
2023/01/29 01:55:39;;;;;;;4.87;4.10;;;0.10;99.90;;;;;;5095293;28;20229;-83
2023/01/29 01:58:12;;;;;;;4.73;4.23;;;0.10;99.90;;;;;;5095111;28;20208;-83
2023/01/29 02:00:40;;;;;;;4.93;4.17;;;0.10;99.90;;;;;;5095065;28;20281;-83
2023/01/29 02:11:37;;;;;;;4.87;4.47;;;0.10;99.90;;;;;;5095072;28;20213;-83
2023/01/29 02:14:06;;;;;;;5.97;4.70;;;0.10;99.90;;;;;;5094625;28;20224;-83
2023/01/29 02:16:36;;;;;;;4.27;3.97;;;0.10;99.90;;;;;;5094644;28;20262;-82
2023/01/29 02:19:10;;;;;;;4.50;4.10;;;0.10;99.90;;;;;;5094506;28;20209;-82
2023/01/29 02:22:27;;;;;;;5.07;4.27;;;0.10;99.90;;;;;;5094549;28;20216;-83
2023/01/29 02:25:23;;;;;;;4.30;3.93;;;0.10;99.90;;;;;;5032202;28;20215;-83
2023/01/29 02:28:22;;;;;;;5.07;4.20;;;0.10;99.90;;;;;;5032362;28;20198;-83
2023/01/29 02:30:56;;;;;;;3.57;3.27;;;0.00;99.90;;;;;;5078101;28;20218;-82
2023/01/29 02:33:34;;;;;;;4.50;4.10;;;0.10;99.90;;;;;;5094103;28;20225;-82
2023/01/29 02:36:12;;;;;;;4.87;4.30;;;0.10;99.90;;;;;;5094409;28;20231;-83
2023/01/29 02:38:49;;;;;;;7.37;4.90;;;0.00;99.90;;;;;;5094420;28;20218;-82
2023/01/29 02:41:26;;;;;;;6.20;4.47;;;0.00;99.90;;;;;;5094509;28;20196;-82
2023/01/29 02:44:04;;;;;;;4.30;3.87;;;0.00;99.90;;;;;;5094460;28;20239;-82
2023/01/29 02:46:36;;;;;;;4.23;3.83;;;0.00;99.90;;;;;;5094296;28;20287;-83
2023/01/29 02:49:13;;;;;;;3.70;3.40;;;0.00;99.90;;;;;;5094359;28;20207;-83
2023/01/29 02:51:45;;;;;;;4.70;3.90;;;0.00;99.90;;;;;;5093989;28;20279;-82
2023/01/29 02:54:23;;;;;;;4.40;4.00;;;0.00;99.90;;;;;;5093750;28;20224;-82
2023/01/29 02:56:56;;;;;;;5.00;3.90;;;-0.10;99.90;;;;;;5093837;28;20223;-82
2023/01/29 02:59:32;;;;;;;4.97;4.33;;;-0.10;99.90;;;;;;5094143;28;20211;-82
2023/01/29 03:02:05;;;;;;;3.77;3.47;;;0.00;99.90;;;;;;5094285;28;20254;-82
2023/01/29 03:04:37;;;;;;;3.57;3.27;;;-0.10;99.90;;;;;;5094270;28;20232;-83
2023/01/29 03:07:39;;;;;;;4.50;3.80;;;-0.10;99.90;;;;;;5093434;28;20209;-82
2023/01/29 03:09:59;;;;;;;5.77;4.03;;;0.00;99.90;;;;;;5093731;28;20208;-82
2023/01/29 03:12:32;;;;;;;3.10;2.90;;;-0.10;99.90;;;;;;5093865;28;20287;-83
2023/01/29 03:15:15;;;;;;;3.50;3.23;;;-0.10;99.90;;;;;;5093567;28;20200;-83
2023/01/29 03:17:51;;;;;;;3.70;3.40;;;-0.10;99.90;;;;;;5093401;28;20212;-84
2023/01/29 03:20:28;;;;;;;4.37;3.53;;;-0.20;99.90;;;;;;5093594;28;20216;-83
2023/01/29 03:23:00;;;;;;;6.23;3.80;;;-0.20;99.90;;;;;;5093391;28;20227;-82
2023/01/29 03:33:58;;;;;;;3.50;3.20;;;-0.20;99.90;;;;;;5093357;28;20231;-82
2023/01/29 03:36:36;;;;;;;3.90;3.27;;;-0.20;99.90;;;;;;5093148;28;20219;-82
2023/01/29 03:39:05;;;;;;;3.73;3.43;;;-0.20;99.90;;;;;;5093275;28;20200;-83
2023/01/29 03:41:38;;;;;;;4.07;3.67;;;-0.20;99.90;;;;;;5093424;28;20208;-83
2023/01/29 03:44:14;;;;;;;4.33;3.93;;;-0.20;99.90;;;;;;5093463;28;20234;-82
2023/01/29 03:46:53;;;;;;;3.47;3.17;;;-0.20;99.90;;;;;;5092930;28;20203;-83
2023/01/29 03:49:31;;;;;;;5.67;3.73;;;-0.20;99.90;;;;;;5092989;28;20208;-83
2023/01/29 03:52:07;;;;;;;4.53;3.97;;;-0.20;99.90;;;;;;5093018;28;20211;-84
2023/01/29 03:54:43;;;;;;;5.73;4.10;;;-0.20;99.90;;;;;;5092843;28;20230;-82
2023/01/29 03:57:17;;;;;;;4.00;3.67;;;-0.20;99.90;;;;;;5092145;28;20216;-82
2023/01/29 03:59:53;;;;;;;4.20;3.57;;;-0.20;99.90;;;;;;5092333;28;20212;-84
2023/01/29 04:02:27;;;;;;;3.83;3.53;;;-0.30;99.90;;;;;;5093121;28;20205;-83
2023/01/29 04:05:01;;;;;;;3.90;3.53;;;-0.30;99.90;;;;;;5093091;28;20215;-82
2023/01/29 04:07:32;;;;;;;4.47;4.07;;;-0.30;99.90;;;;;;5092620;28;20208;-83
2023/01/29 04:10:04;;;;;;;4.23;3.83;;;-0.30;99.90;;;;;;5092924;28;20212;-82
2023/01/29 04:12:41;;;;;;;4.07;3.67;;;-0.30;99.90;;;;;;5092963;28;20208;-83
2023/01/29 04:15:14;;;;;;;4.20;3.80;;;-0.30;99.90;;;;;;5092864;28;20200;-82
2023/01/29 04:17:48;;;;;;;4.43;4.03;;;-0.40;99.90;;;;;;5092533;28;20220;-82
2023/01/29 04:20:17;;;;;;;4.93;4.43;;;-0.40;99.90;;;;;;5092630;28;20213;-82
2023/01/29 04:22:49;;;;;;;4.13;3.47;;;-0.50;99.90;;;;;;5092588;28;20263;-82
2023/01/29 04:25:25;;;;;;;3.70;3.40;;;-0.50;99.90;;;;;;5092645;28;20214;-83
2023/01/29 04:28:04;;;;;;;4.97;4.47;;;-0.60;99.90;;;;;;5092537;28;20219;-82
2023/01/29 04:30:42;;;;;;;7.20;4.73;;;-0.60;99.90;;;;;;5092560;28;20203;-82
2023/01/29 04:33:26;;;;;;;4.33;4.00;;;-0.60;99.90;;;;;;5092805;28;20303;-82
2023/01/29 04:36:13;;;;;;;5.17;4.33;;;-0.60;99.90;;;;;;5092666;28;20210;-82
2023/01/29 04:39:03;;;;;;;5.13;4.30;;;-0.60;99.90;;;;;;5092410;28;20215;-82
2023/01/29 04:41:36;;;;;;;4.53;4.10;;;-0.50;99.90;;;;;;5092336;28;20204;-82
2023/01/29 04:44:11;;;;;;;4.30;3.90;;;-0.60;99.90;;;;;;5092431;28;20244;-82
2023/01/29 04:46:49;;;;;;;4.27;3.60;;;-0.60;99.90;;;;;;5092616;28;20210;-82
2023/01/29 04:49:33;;;;;;;4.40;3.87;;;-0.50;99.90;;;;;;5092553;28;20212;-82
2023/01/29 04:52:09;;;;;;;5.53;4.07;;;-0.60;99.90;;;;;;5092958;28;20212;-82
2023/01/29 04:54:52;;;;;;;3.50;3.20;;;-0.60;99.90;;;;;;5092340;28;20228;-82
2023/01/29 04:57:25;;;;;;;3.87;3.43;;;-0.50;99.90;;;;;;5092126;28;20245;-82
2023/01/29 05:00:00;;;;;;;6.30;3.73;;;-0.60;99.90;;;;;;5092228;28;20260;-82
2023/01/29 05:02:30;;;;;;;4.13;3.67;;;-0.60;99.90;;;;;;5092493;28;20211;-83
2023/01/29 05:05:01;;;;;;;3.63;3.33;;;-0.60;99.90;;;;;;5092833;28;20255;-84
2023/01/29 05:07:31;;;;;;;3.33;3.03;;;-0.70;99.90;;;;;;5092357;28;20200;-82
2023/01/29 05:10:00;;;;;;;3.07;2.87;;;-0.80;99.90;;;;;;5094771;28;20196;-82
2023/01/29 05:12:30;;;;;;;3.83;3.33;;;-0.80;99.90;;;;;;5096002;28;20223;-82
2023/01/29 05:15:04;;;;;;;5.57;4.03;;;-0.90;99.90;;;;;;5096359;28;20197;-82
2023/01/29 05:17:32;;;;;;;4.17;3.80;;;-0.90;99.90;;;;;;5095973;28;20229;-83
2023/01/29 05:20:02;;;;;;;4.47;4.07;;;-0.90;99.90;;;;;;5095628;28;20208;-82
2023/01/29 05:22:30;;;;;;;3.03;2.83;;;-0.90;99.90;;;;;;5095706;28;20208;-82
2023/01/29 05:24:59;;;;;;;3.80;3.50;;;-0.90;99.90;;;;;;5095497;28;20251;-83
2023/01/29 05:30:18;;;;;;;3.97;3.57;;;-1.00;99.90;;;;;;5095632;28;20216;-82
2023/01/29 05:32:46;;;;;;;4.00;3.60;;;-0.90;99.90;;;;;;5095891;28;20204;-81
2023/01/29 05:35:16;;;;;;;4.27;3.87;;;-0.90;99.90;;;;;;5095796;28;20212;-81
2023/01/29 05:37:44;;;;;;;4.63;3.73;;;-0.90;99.90;;;;;;5095028;28;20216;-82
2023/01/29 05:40:13;;;;;;;4.03;3.63;;;-1.00;99.90;;;;;;5095419;28;20219;-83
2023/01/29 05:42:41;;;;;;;4.27;3.97;;;-1.00;99.90;;;;;;5095184;28;20203;-83
2023/01/29 05:45:10;;;;;;;3.80;3.50;;;-1.00;99.90;;;;;;5095684;28;20208;-83
2023/01/29 05:47:38;;;;;;;3.73;3.40;;;-1.00;99.90;;;;;;5095113;28;20207;-83
2023/01/29 05:50:08;;;;;;;4.63;4.23;;;-1.00;99.90;;;;;;5095391;28;20332;-82
2023/01/29 05:52:37;;;;;;;4.87;3.90;;;-1.00;99.90;;;;;;5095595;28;20215;-82
2023/01/29 05:55:08;;;;;;;4.50;4.10;;;-1.00;99.90;;;;;;5094960;28;20204;-82
2023/01/29 05:57:36;;;;;;;3.50;3.20;;;-1.00;99.90;;;;;;5094993;28;20228;-83
2023/01/29 06:00:05;;;;;;;3.17;2.87;;;-1.00;99.90;;;;;;5095347;28;20216;-83
2023/01/29 06:02:33;;;;;;;4.17;3.77;;;-1.00;99.90;;;;;;5094936;28;20204;-82
2023/01/29 06:05:02;;;;;;;8.80;3.50;;;-1.10;99.90;;;;;;5095087;28;20204;-82
2023/01/29 06:07:30;;;;;;;3.53;3.23;;;-1.10;99.90;;;;;;5094937;28;20200;-82
2023/01/29 06:10:00;;;;;;;3.97;3.57;;;-1.10;99.90;;;;;;5094914;28;20208;-82
2023/01/29 06:12:28;;;;;;;4.53;4.13;;;-1.10;99.90;;;;;;5094870;28;20205;-83
2023/01/29 06:14:56;;;;;;;3.40;3.10;;;-1.10;99.90;;;;;;5094702;28;20245;-83
2023/01/29 06:17:24;;;;;;;4.67;3.70;;;-1.10;99.90;;;;;;5094468;28;20259;-83
2023/01/29 06:19:53;;;;;;;3.50;3.20;;;-1.10;99.90;;;;;;5094651;28;20208;-83
2023/01/29 06:22:21;;;;;;;3.97;3.63;;;-1.10;99.90;;;;;;5093909;28;20201;-83
2023/01/29 06:24:49;;;;;;;4.23;2.90;;;-1.20;99.90;;;;;;5094779;28;20223;-82
2023/01/29 06:27:19;;;;;;;8.37;4.07;;;-1.20;99.90;;;;;;5094329;28;20204;-83
2023/01/29 06:29:47;;;;;;;8.97;3.53;;;-1.10;99.90;;;;;;5094123;28;20265;-83
2023/01/29 06:32:15;;;;;;;4.37;3.97;;;-1.20;99.90;;;;;;5094286;28;20215;-83
2023/01/29 06:34:44;;;;;;;3.90;3.60;;;-1.10;99.90;;;;;;5094313;28;20224;-83
2023/01/29 06:37:14;;;;;;;5.27;4.77;;;-1.10;99.90;;;;;;5093878;28;20212;-83
2023/01/29 06:39:43;;;;;;;4.50;4.10;;;-1.10;99.90;;;;;;5094604;28;20284;-83
2023/01/29 06:42:11;;;;;;;3.80;3.43;;;-1.20;99.90;;;;;;5094472;28;20211;-83
2023/01/29 06:44:41;;;;;;;3.90;3.60;;;-1.20;99.90;;;;;;5094057;28;20230;-83
2023/01/29 06:47:09;;;;;;;3.33;3.03;;;-1.30;99.90;;;;;;5093466;28;20201;-83
2023/01/29 06:49:37;;;;;;;3.30;3.00;;;-1.30;99.90;;;;;;5094623;28;20208;-82
2023/01/29 06:52:06;;;;;;;4.17;3.40;;;-1.30;99.90;;;;;;5094365;28;20209;-83
2023/01/29 06:54:34;;;;;;;3.27;2.97;;;-1.40;99.90;;;;;;5093814;28;20230;-83
2023/01/29 06:57:02;;;;;;;4.30;3.90;;;-1.30;99.90;;;;;;5093624;28;20204;-83
2023/01/29 06:59:30;;;;;;;5.10;4.27;;;-1.30;99.90;;;;;;5093807;28;20224;-83
2023/01/29 07:02:00;;;;;;;5.20;4.70;;;-1.30;99.90;;;;;;5094147;28;20211;-82
2023/01/29 07:04:28;;;;;;;3.83;3.37;;;-1.30;99.90;;;;;;5093789;28;20315;-83
2023/01/29 07:06:59;;;;;;;3.63;3.33;;;-1.30;99.90;;;;;;5093693;28;20215;-82
2023/01/29 07:09:27;;;;;;;4.17;3.77;;;-1.30;99.90;;;;;;5094282;28;20301;-83
2023/01/29 07:11:55;;;;;;;4.37;3.97;;;-1.20;99.90;;;;;;5093343;28;20204;-83
2023/01/29 07:14:23;;;;;;;4.83;4.33;;;-1.20;99.90;;;;;;5093549;28;20222;-83
2023/01/29 07:16:51;;;;;;;7.70;5.30;;;-1.20;99.90;;;;;;5093195;28;20212;-82
2023/01/29 07:19:22;;;;;;;4.57;3.73;;;-1.20;99.90;;;;;;5093408;28;20224;-84
2023/01/29 07:21:50;;;;;;;4.70;4.27;;;-1.20;99.90;;;;;;5093651;28;20205;-82
2023/01/29 07:24:19;;;;;;;3.70;3.40;;;-1.20;99.90;;;;;;5093344;28;20232;-82
2023/01/29 07:26:47;;;;;;;3.63;3.33;;;-1.30;99.90;;;;;;5093194;28;20216;-82
2023/01/29 07:29:15;;;;;;;4.20;3.80;;;-1.20;99.90;;;;;;5093387;28;20211;-82
2023/01/29 07:31:44;;;;;;;5.17;4.70;;;-1.20;99.90;;;;;;5093105;28;20204;-82
2023/01/29 07:34:12;;;;;;;3.97;3.67;;;-1.20;99.90;;;;;;5092187;28;20259;-83
2023/01/29 07:36:42;;;;;;;3.90;3.60;;;-1.10;99.90;;;;;;5092918;28;20219;-83
2023/01/29 07:39:10;;;;;;;6.20;4.23;;;-1.00;99.90;;;;;;5092950;28;20220;-82
2023/01/29 07:41:38;;;;;;;6.00;4.83;;;-1.10;99.90;;;;;;5093139;28;20239;-83
2023/01/29 07:44:07;;;;;;;3.60;3.30;;;-1.00;99.90;;;;;;5093124;28;20243;-83
2023/01/29 07:46:35;;;;;;;4.57;4.17;;;-1.10;99.90;;;;;;5093273;28;20219;-83
2023/01/29 07:49:03;;;;;;;4.30;3.90;;;-1.00;99.90;;;;;;5093093;28;20204;-83
2023/01/29 07:51:32;;;;;;;3.33;3.03;;;-1.00;99.90;;;;;;5092977;28;20211;-83
2023/01/29 07:54:01;;;;;;;3.47;3.17;;;-1.10;99.90;;;;;;5093026;28;20234;-83
2023/01/29 07:56:29;;;;;;;4.73;4.30;;;-1.00;99.90;;;;;;5093012;28;20240;-83
2023/01/29 07:58:58;;;;;;;4.30;3.90;;;-1.10;99.90;;;;;;5092743;28;20243;-82
2023/01/29 08:01:26;;;;;;;4.80;4.30;;;-1.00;99.90;;;;;;5092948;28;20204;-83
2023/01/29 08:03:54;;;;;;;5.43;4.67;;;-0.90;99.90;;;;;;5092832;28;20251;-83
2023/01/29 08:06:23;;;;;;;5.27;4.40;;;-0.80;99.90;;;;;;5093063;28;20204;-83
2023/01/29 08:08:52;;;;;;;4.03;3.73;;;-0.80;99.90;;;;;;5092808;28;20203;-83
2023/01/29 08:11:22;;;;;;;4.50;4.10;;;-0.90;99.90;;;;;;5092703;28;20209;-83
2023/01/29 08:13:51;;;;;;;5.93;4.73;;;-0.80;99.90;;;;;;5092758;28;20234;-83
2023/01/29 08:16:19;;;;;;;7.50;4.07;;;-0.80;99.90;;;;;;5092584;28;20216;-83
2023/01/29 08:18:48;;;;;;;5.10;4.30;;;-0.80;99.90;;;;;;5092568;28;20216;-83
2023/01/29 08:21:16;;;;;;;4.47;4.07;;;-0.80;99.90;;;;;;5092783;28;20214;-83
2023/01/29 08:23:44;;;;;;;4.63;4.23;;;-0.90;99.90;;;;;;5092579;28;20235;-82
2023/01/29 08:26:12;;;;;;;4.17;3.77;;;-0.80;99.90;;;;;;5092465;28;20212;-83
2023/01/29 08:28:42;;;;;;;4.27;3.87;;;-0.70;99.90;;;;;;5092401;28;20203;-82
2023/01/29 08:31:15;;;;;;;4.10;3.43;;;-0.70;99.90;;;;;;5092532;28;20207;-84
2023/01/29 08:47:10;;;;;;;4.87;4.43;;;-0.70;99.90;;;;;;5096524;28;20272;-83
2023/01/29 08:50:30;;;;;;;3.27;3.07;;;-0.60;99.90;;;;;;5096611;28;20212;-82
2023/01/29 08:59:38;;;;;;;3.83;3.53;;;-0.90;99.90;;;;;;5090045;28;20307;-82
2023/01/29 09:02:54;;;;;;;3.77;3.47;;;-1.00;99.90;;;;;;5096637;28;20209;-83
2023/01/29 09:06:16;;;;;;;4.27;3.83;;;-1.00;99.90;;;;;;5096046;28;20204;-83
2023/01/29 09:08:48;;;;;;;7.03;4.87;;;-1.00;99.90;;;;;;5095965;28;20196;-83
2023/01/29 09:11:16;;;;;;;3.37;3.17;;;-1.00;99.90;;;;;;5095912;28;20238;-82
2023/01/29 09:13:45;;;;;;;4.97;4.57;;;-0.90;99.90;;;;;;5096628;28;20231;-83
2023/01/29 09:16:13;;;;;;;4.50;4.10;;;-0.80;99.90;;;;;;5095958;28;20212;-83
2023/01/29 09:18:43;;;;;;;4.40;3.87;;;-0.80;99.90;;;;;;5095462;28;20234;-83
2023/01/29 09:21:11;;;;;;;4.50;4.10;;;-0.80;99.90;;;;;;5096041;28;20204;-82
2023/01/29 09:23:39;;;;;;;4.83;4.33;;;-0.60;99.90;;;;;;5095784;28;20238;-83
2023/01/29 09:26:08;;;;;;;5.23;4.50;;;-0.50;99.90;;;;;;5095717;28;20220;-82
2023/01/29 09:28:36;;;;;;;5.50;4.90;;;-0.40;99.90;;;;;;5095189;28;20197;-82
2023/01/29 09:31:05;;;;;;;3.90;3.60;;;-0.50;99.90;;;;;;5095409;28;20211;-82
2023/01/29 09:33:33;;;;;;;4.37;4.07;;;-0.50;99.90;;;;;;5095828;28;20320;-83
2023/01/29 09:36:05;;;;;;;4.77;4.37;;;-0.30;99.90;;;;;;5095698;28;20200;-82
2023/01/29 09:38:33;;;;;;;5.33;4.83;;;-0.20;99.90;;;;;;5094932;28;20204;-83
2023/01/29 09:41:08;;;;;;;18.77;4.73;;;-0.10;99.90;;;;;;5095308;28;20213;-82
2023/01/29 09:43:45;;;;;;;6.03;5.43;;;0.00;99.90;;;;;;5095197;28;20240;-82
2023/01/29 09:46:20;;;;;;;5.23;4.73;;;0.00;99.90;;;;;;5095540;28;20237;-82
2023/01/29 09:48:57;;;;;;;5.53;4.50;;;-0.10;99.90;;;;;;5095246;28;20299;-82
2023/01/29 09:51:34;;;;;;;5.77;5.17;;;0.00;99.90;;;;;;5095369;28;20196;-82
2023/01/29 09:54:14;;;;;;;5.20;4.70;;;0.00;99.90;;;;;;5094939;28;20220;-82
2023/01/29 09:56:45;;;;;;;4.07;3.67;;;0.00;99.90;;;;;;5093551;28;20211;-82
2023/01/29 09:59:17;;;;;;;5.67;5.07;;;-0.10;99.90;;;;;;5094994;28;20260;-82
2023/01/29 10:01:52;;;;;;;5.30;4.80;;;-0.10;99.90;;;;;;5095124;28;20239;-82
2023/01/29 10:04:59;;;;;;;5.30;4.80;;;-0.20;99.90;;;;;;5095140;28;20303;-82
2023/01/29 10:07:51;;;;;;;6.10;5.40;;;-0.10;99.90;;;;;;5071569;28;20212;-82
2023/01/29 10:10:32;;;;;;;5.17;4.67;;;-0.10;99.90;;;;;;5095582;28;20207;-82
2023/01/29 10:13:15;;;;;;;4.87;4.47;;;0.00;99.90;;;;;;5094743;28;20228;-83
2023/01/29 10:15:52;;;;;;;6.13;5.57;;;0.20;99.90;;;;;;5094661;28;20215;-82
2023/01/29 10:18:48;;;;;;;6.60;5.13;;;0.40;99.90;;;;;;5094892;28;20287;-81
2023/01/29 10:21:38;;;;;;;5.23;4.83;;;0.40;99.90;;;;;;5094336;28;20239;-83
2023/01/29 10:24:20;;;;;;;6.37;5.03;;;0.40;99.90;;;;;;5094388;28;20220;-82
2023/01/29 10:26:50;;;;;;;4.50;4.10;;;0.50;99.90;;;;;;5094581;28;20212;-82
2023/01/29 10:29:20;;;;;;;9.40;4.80;;;0.60;99.90;;;;;;5094560;28;20200;-82
2023/01/29 10:31:55;;;;;;;5.70;5.13;;;0.60;99.90;;;;;;5094638;28;20217;-82
2023/01/29 10:34:30;;;;;;;6.53;5.80;;;0.70;99.90;;;;;;5094333;28;20230;-82
2023/01/29 10:36:58;;;;;;;8.53;5.97;;;0.90;99.90;;;;;;5094328;28;20199;-82
2023/01/29 10:39:31;;;;;;;4.80;4.40;;;1.10;99.90;;;;;;5093705;28;20316;-82
2023/01/29 10:42:18;;;;;;;6.00;5.23;;;1.20;99.90;;;;;;5094864;28;20216;-82
2023/01/29 10:44:59;;;;;;;4.60;4.20;;;1.30;99.90;;;;;;5094432;28;20228;-82
2023/01/29 10:47:43;;;;;;;5.13;4.73;;;1.10;99.90;;;;;;5093888;28;20208;-82
2023/01/29 10:50:20;;;;;;;5.00;4.60;;;1.20;99.90;;;;;;5094053;28;20207;-82
2023/01/29 10:53:33;;;;;;;5.88;5.25;;;1.50;99.90;;;;;;5094159;28;20235;-82
2023/01/29 10:56:15;;;;;;;5.78;5.18;;;1.80;99.90;;;;;;5094109;28;20296;-82
2023/01/29 10:58:53;;;;;;;5.78;5.28;;;2.10;99.90;;;;;;5093621;28;20216;-82
2023/01/29 11:01:21;;;;;;;7.57;5.28;;;2.20;99.90;;;;;;5094204;28;20235;-82
2023/01/29 11:03:58;;;;;;;5.22;4.78;;;2.20;99.90;;;;;;5093788;28;20277;-82
2023/01/29 11:06:30;;;;;;;7.03;4.85;;;1.90;99.90;;;;;;5093502;28;20211;-82
2023/01/29 11:09:06;;;;;;;5.60;5.10;;;1.70;99.90;;;;;;5093723;28;20210;-82
2023/01/29 11:11:41;;;;;;;8.23;6.63;;;1.50;99.90;;;;;;5093794;28;20207;-82
2023/01/29 11:14:14;;;;;;;5.03;4.63;;;1.40;99.90;;;;;;5093478;28;20232;-81
2023/01/29 11:16:44;;;;;;;6.23;5.63;;;1.20;99.90;;;;;;5093313;28;20222;-82
2023/01/29 11:19:13;;;;;;;5.18;4.65;;;1.10;99.90;;;;;;5093786;28;20243;-82
2023/01/29 11:21:53;;;;;;;5.30;4.90;;;1.10;99.90;;;;;;5093676;28;20220;-82
2023/01/29 11:24:21;;;;;;;9.67;8.73;;;1.00;99.90;;;;;;5093195;28;20232;-83
2023/01/29 11:26:53;;;;;;;9.83;7.10;;;0.90;99.90;;;;;;5092991;28;20220;-83
2023/01/29 11:29:43;;;;;;;7.73;6.07;;;0.90;99.90;;;;;;5093337;28;20215;-82
2023/01/29 11:32:15;;;;;;;5.53;5.13;;;1.10;99.90;;;;;;5089264;28;20206;-81
2023/01/29 11:35:03;;;;;;;5.00;4.60;;;1.20;99.90;;;;;;5093609;28;20247;-81
2023/01/29 11:37:35;;;;;;;5.10;4.70;;;1.30;99.90;;;;;;5093035;28;20212;-82
2023/01/29 11:40:38;;;;;;;6.45;5.40;;;1.40;99.90;;;;;;5093054;28;20235;-82
2023/01/29 11:43:31;;;;;;;5.40;4.90;;;1.30;99.90;;;;;;5093081;28;20220;-82
2023/01/29 11:46:02;;;;;;;6.00;5.50;;;1.40;99.90;;;;;;5092967;28;20210;-81
2023/01/29 11:48:41;;;;;;;7.32;6.65;;;1.70;99.90;;;;;;5093095;28;20200;-81
2023/01/29 11:51:21;;;;;;;7.10;6.40;;;2.20;99.90;;;;;;5093281;28;20201;-81
2023/01/29 11:53:52;;;;;;;6.97;6.30;;;2.70;99.90;;;;;;5092877;28;20239;-81
2023/01/29 11:56:23;;;;;;;5.57;5.07;;;3.10;99.90;;;;;;5092757;28;20210;-82
2023/01/29 11:58:56;;;;;;;7.68;6.93;;;3.40;99.90;;;;;;5092768;28;20192;-82
2023/01/29 12:01:32;;;;;;;7.25;6.55;;;3.60;99.90;;;;;;5093219;28;20303;-82
2023/01/29 12:04:01;;;;;;;7.88;6.28;;;3.90;99.90;;;;;;5093083;28;20291;-81
2023/01/29 12:06:35;;;;;;;6.03;5.45;;;4.40;99.90;;;;;;5092766;28;20235;-81
2023/01/29 12:09:12;;;;;;;7.40;5.50;;;4.60;99.90;;;;;;5092649;28;20204;-82
2023/01/29 12:11:43;;;;;;;5.60;5.07;;;4.80;99.90;;;;;;5093235;28;20235;-81
2023/01/29 12:14:27;;;;;;;6.00;5.50;;;4.70;99.90;;;;;;5093040;28;20228;-81
2023/01/29 12:17:01;;;;;;;6.82;5.63;;;4.60;99.90;;;;;;5092824;28;20196;-81
2023/01/29 12:19:34;;;;;;;8.13;6.38;;;4.70;99.90;;;;;;5094589;28;20208;-82
2023/01/29 12:22:06;;;;;;;6.90;6.20;;;4.50;99.90;;;;;;5096818;28;20226;-81
2023/01/29 12:24:40;;;;;;;6.88;5.82;;;4.30;99.90;;;;;;5096606;28;20228;-81
2023/01/29 12:27:17;;;;;;;6.03;5.53;;;4.30;99.90;;;;;;5096686;28;20207;-81
2023/01/29 12:29:51;;;;;;;6.07;5.53;;;4.40;99.90;;;;;;5097059;28;20210;-81
2023/01/29 12:32:29;;;;;;;7.38;6.68;;;4.60;99.90;;;;;;5096970;28;20214;-81
2023/01/29 12:35:03;;;;;;;9.15;6.50;;;4.80;99.90;;;;;;5096573;28;20204;-82
2023/01/29 12:37:41;;;;;;;6.10;5.60;;;4.60;99.90;;;;;;5096613;28;20233;-82
2023/01/29 12:40:14;;;;;;;7.55;6.82;;;4.60;99.90;;;;;;5096635;28;20241;-81
2023/01/29 12:42:47;;;;;;;6.32;5.72;;;4.50;99.90;;;;;;5096536;28;20222;-83
2023/01/29 12:45:19;;;;;;;9.02;7.20;;;4.60;99.90;;;;;;5096449;28;20200;-82
2023/01/29 12:47:51;;;;;;;8.07;6.47;;;4.50;99.90;;;;;;5096011;28;20218;-81
2023/01/29 12:50:24;;;;;;;6.22;5.65;;;4.10;99.90;;;;;;5095600;28;20212;-82
2023/01/29 12:52:56;;;;;;;7.20;6.47;;;3.60;99.90;;;;;;5094006;28;20216;-82
2023/01/29 12:55:28;;;;;;;6.85;6.25;;;3.40;99.90;;;;;;5094543;28;20215;-81
2023/01/29 12:57:58;;;;;;;6.90;6.28;;;3.20;99.90;;;;;;5093972;28;20208;-81
2023/01/29 13:00:32;;;;;;;8.50;6.22;;;3.30;99.90;;;;;;5094498;28;20207;-81
2023/01/29 13:03:04;;;;;;;8.65;6.78;;;3.30;99.90;;;;;;5094598;28;20234;-83
2023/01/29 13:05:39;;;;;;;7.65;6.78;;;3.30;99.90;;;;;;5095216;28;20212;-83
2023/01/29 13:08:11;;;;;;;12.43;6.97;;;3.20;99.90;;;;;;5096344;28;20208;-83
2023/01/29 13:10:44;;;;;;;7.90;7.13;;;3.10;99.90;;;;;;5096212;28;20215;-83
2023/01/29 13:13:19;;;;;;;6.90;6.20;;;3.20;99.90;;;;;;5095980;28;20224;-83
2023/01/29 13:15:49;;;;;;;7.32;6.63;;;3.20;99.90;;;;;;5095684;28;20295;-83
2023/01/29 13:18:33;;;;;;;6.43;5.78;;;3.40;99.90;;;;;;5095987;28;20205;-83
2023/01/29 13:21:02;;;;;;;6.28;5.68;;;3.40;99.90;;;;;;5096256;28;20219;-83
2023/01/29 13:23:34;;;;;;;7.85;7.13;;;3.50;99.90;;;;;;5095393;28;20224;-84
2023/01/29 13:26:04;;;;;;;7.93;7.13;;;3.70;99.90;;;;;;5095510;28;20216;-84
2023/01/29 13:28:33;;;;;;;7.35;6.68;;;3.90;99.90;;;;;;5095552;28;20204;-84
2023/01/29 13:31:31;;;;;;;6.70;6.05;;;4.10;99.90;;;;;;5095686;28;20284;-83
2023/01/29 13:34:09;;;;;;;6.60;6.00;;;4.20;99.90;;;;;;5095730;28;20220;-84
2023/01/29 13:36:43;;;;;;;9.85;7.60;;;4.30;99.90;;;;;;5095487;28;20352;-82
2023/01/29 13:39:22;;;;;;;8.95;6.13;;;4.50;99.90;;;;;;5095749;28;20215;-82
2023/01/29 13:41:52;;;;;;;8.23;6.63;;;4.50;99.90;;;;;;5095209;28;20230;-83
2023/01/29 13:44:27;;;;;;;6.93;6.35;;;4.70;99.90;;;;;;5095475;28;20235;-83
2023/01/29 13:46:59;;;;;;;11.95;6.95;;;4.80;99.90;;;;;;5095407;28;20302;-83
2023/01/29 13:49:35;;;;;;;7.72;6.93;;;4.70;99.90;;;;;;5095599;28;20222;-83
2023/01/29 13:52:31;;;;;;;7.82;6.22;;;4.60;99.90;;;;;;5095360;28;20215;-83
2023/01/29 13:55:02;;;;;;;7.25;6.55;;;4.40;99.90;;;;;;5095001;28;20282;-83
2023/01/29 13:57:52;;;;;;;8.43;6.95;;;4.40;99.90;;;;;;5095021;28;20205;-83
2023/01/29 14:00:59;;;;;;;7.60;6.70;;;4.40;99.90;;;;;;5095510;28;20258;-83
2023/01/29 14:03:54;;;;;;;7.35;6.65;;;4.30;99.90;;;;;;5094648;28;20240;-82
2023/01/29 14:06:50;;;;;;;6.88;6.25;;;4.10;99.90;;;;;;5094901;28;20292;-83
2023/01/29 14:10:03;;;;;;;9.82;6.32;;;4.00;99.90;;;;;;5094764;28;20212;-82
2023/01/29 14:12:45;;;;;;;7.97;7.03;;;3.90;99.90;;;;;;5032873;28;20209;-82